createdAt,value
2022-12-18T21:05:48.203Z,45.30
2022-12-18T21:08:19.516Z,52.90
2022-12-18T21:10:50.494Z,56.20
2022-12-18T21:13:22.347Z,52.85
2022-12-18T21:15:58.712Z,54.35
2022-12-18T21:18:30.323Z,57.83
2022-12-18T21:21:03.995Z,58.03
2022-12-18T21:23:36.834Z,43.20
2022-12-18T21:26:19.916Z,43.92
2022-12-18T21:28:51.722Z,43.58
2022-12-18T21:31:23.584Z,46.05
2022-12-18T21:34:01.294Z,45.03
2022-12-18T21:36:37.456Z,45.10
2022-12-18T21:39:09.224Z,44.42
2022-12-18T21:41:55.409Z,66.00
2022-12-18T21:44:28.072Z,68.65
2022-12-18T21:47:08.061Z,47.90
2022-12-18T21:49:43.785Z,44.22
2022-12-18T21:52:18.209Z,42.17
2022-12-18T21:54:49.541Z,45.45
2022-12-18T21:57:23.245Z,71.63
2022-12-18T21:59:55.626Z,50.60
2022-12-18T22:02:27.156Z,45.63
2022-12-18T22:05:01.561Z,42.03
2022-12-18T22:07:35.648Z,51.13
2022-12-18T22:10:07.717Z,51.40
2022-12-18T22:12:43.473Z,56.28
2022-12-18T22:15:21.501Z,64.30
2022-12-18T22:17:59.767Z,53.67
2022-12-18T22:20:32.052Z,44.17
2022-12-18T22:23:06.435Z,48.97
2022-12-18T22:25:39.940Z,39.85
2022-12-18T22:28:23.631Z,55.28
2022-12-18T22:30:59.211Z,51.50
2022-12-18T22:33:31.429Z,44.63
2022-12-18T22:36:08.661Z,44.65
2022-12-18T22:38:42.424Z,39.90
2022-12-18T22:41:13.873Z,36.83
2022-12-18T22:43:44.977Z,38.97
2022-12-18T22:46:19.235Z,45.63
2022-12-18T22:48:50.234Z,50.90
2022-12-18T22:51:22.925Z,48.97
2022-12-18T22:53:56.692Z,47.55
2022-12-18T22:56:28.158Z,38.38
2022-12-18T22:58:59.321Z,42.92
2022-12-18T23:01:32.582Z,47.53
2022-12-18T23:04:04.019Z,41.28
2022-12-18T23:06:35.659Z,36.75
2022-12-18T23:09:09.747Z,36.83
2022-12-18T23:11:41.088Z,33.63
2022-12-18T23:14:12.136Z,36.80
2022-12-18T23:16:43.570Z,33.65
2022-12-18T23:19:18.429Z,39.53
2022-12-18T23:21:49.872Z,32.03
2022-12-18T23:24:23.514Z,31.10
2022-12-18T23:26:55.116Z,30.33
2022-12-18T23:29:26.192Z,35.13
2022-12-18T23:31:57.557Z,33.30
2022-12-18T23:34:28.719Z,37.35
2022-12-18T23:37:01.366Z,40.55
2022-12-18T23:39:35.061Z,37.03
2022-12-18T23:42:06.484Z,37.25
2022-12-18T23:44:37.511Z,33.03
2022-12-18T23:47:08.878Z,39.05
2022-12-18T23:49:39.941Z,41.53
2022-12-18T23:52:11.365Z,36.15
2022-12-18T23:54:45.167Z,34.35
2022-12-18T23:57:17.362Z,29.58
2022-12-18T23:59:50.344Z,37.55
